Terminal Aerodrome Forecast
Issued by NWS

Home | Current Version | Previous Version | Text Only | Print | Product List | Glossary On
Versions: 1 2 3 4 5 6 7 8 9 10 11 12 13 14 15 16 17 18
960
FTUS43 KGRR 110539
TAFBTL
TAF
KBTL 110539Z 1106/1206 30006KT P6SM BKN050
     FM111600 29009KT 3SM -SHSN OVC025
     FM112300 25006KT P6SM SCT040=

USA.gov is the U.S. government's official web portal to all federal, state and local government web resources and services.